Time;durP1;ratioP1;P1;durP2;ratioP2;P2;SDS_P1;SDS_P2;PMS_P1;PMS_P2;Temp;Humidity;BMP_temperature;BMP_pressure;BME280_temperature;BME280_humidity;BME280_pressure;Samples;Min_cycle;Max_cycle;Signal;HPM_P1;HPM_P2
2022/06/04 00:00:18;;;;;;;13.57;9.43;;;;;;;-144.47;61.67;53193.75;5027412;28;20118;-67
2022/06/04 00:02:45;;;;;;;17.75;9.70;;;;;;;-144.47;61.97;53269.22;5026856;28;20029;-68
2022/06/04 00:05:15;;;;;;;17.13;10.23;;;;;;;-144.47;62.93;53231.50;5022235;28;20111;-69
2022/06/04 00:07:41;;;;;;;17.55;9.75;;;;;;;-144.47;63.18;53247.38;5028301;28;20359;-67
2022/06/04 00:15:47;;;;;;;20.30;9.50;;;;;;;-144.47;64.65;53209.66;5026252;28;20130;-72
2022/06/04 00:18:14;;;;;;;16.02;8.57;;;;;;;-144.47;63.86;53217.59;5030685;28;20113;-70
2022/06/04 00:20:39;;;;;;;16.42;9.60;;;;;;;-144.47;63.90;53221.56;5030092;28;20029;-69
2022/06/04 00:23:07;;;;;;;19.05;8.48;;;;;;;-144.47;64.36;53265.25;5029494;28;20044;-71
2022/06/04 00:25:35;;;;;;;18.50;9.00;;;;;;;-144.47;64.24;53239.44;5030805;28;20060;-68
2022/06/04 00:28:03;;;;;;;14.55;8.93;;;;;;;-144.47;64.47;53233.47;5030773;28;20049;-69
2022/06/04 00:30:28;;;;;;;14.30;8.32;;;;;;;-144.47;64.17;53213.63;5029137;28;20376;-70
2022/06/04 00:32:54;;;;;;;11.20;7.60;;;;;;;-144.47;63.89;53261.28;5030066;28;20040;-71
2022/06/04 00:35:19;;;;;;;13.50;7.28;;;;;;;-144.47;63.78;53225.53;5030624;28;20179;-69
2022/06/04 00:37:45;;;;;;;11.63;6.75;;;;;;;-144.47;63.83;53217.59;5030314;28;20463;-71
2022/06/04 00:40:19;;;;;;;9.90;7.18;;;;;;;-144.47;64.10;53209.66;5030399;28;20360;-68
2022/06/04 00:42:44;;;;;;;12.32;6.88;;;;;;;-144.47;64.01;53237.44;5030055;28;20049;-70
2022/06/04 00:45:34;;;;;;;10.48;6.45;;;;;;;-144.47;63.55;53223.56;5030323;28;20107;-70
2022/06/04 00:48:05;;;;;;;10.00;6.05;;;;;;;-144.47;63.28;53259.31;5017981;28;20029;-71
2022/06/04 00:50:33;;;;;;;8.90;6.28;;;;;;;-144.47;63.30;53235.47;5029927;28;20044;-71
2022/06/04 00:53:03;;;;;;;9.68;6.55;;;;;;;-144.47;64.26;53249.38;5026813;28;20042;-71
2022/06/04 00:56:09;;;;;;;9.75;6.65;;;;;;;-144.47;63.65;53237.44;5025183;28;20210;-68
2022/06/04 00:58:52;;;;;;;11.68;6.13;;;;;;;-144.47;63.73;53197.72;5028701;28;20053;-69
2022/06/04 01:01:28;;;;;;;8.40;6.10;;;;;;;-144.47;64.00;53233.47;5017446;28;20025;-70
2022/06/04 01:04:47;;;;;;;10.63;6.25;;;;;;;-144.47;63.90;53231.50;5030105;28;20036;-69
2022/06/04 01:07:10;;;;;;;10.10;6.10;;;;;;;-144.47;63.37;53209.66;5026459;28;20029;-70
2022/06/04 01:10:04;;;;;;;9.43;5.97;;;;;;;-144.47;63.83;53211.63;5030049;28;20025;-71
2022/06/04 01:12:33;;;;;;;21.10;6.97;;;;;;;-144.47;64.17;53245.41;5002060;28;20045;-71
2022/06/04 01:15:12;;;;;;;11.55;5.82;;;;;;;-144.47;64.84;53261.28;5030069;28;20459;-71
2022/06/04 01:17:58;;;;;;;10.27;6.45;;;;;;;-144.47;64.42;53251.34;5029679;28;20040;-68
2022/06/04 01:20:26;;;;;;;8.88;5.85;;;;;;;-144.47;64.75;53247.38;5010915;28;20029;-69
2022/06/04 01:23:19;;;;;;;10.73;6.25;;;;;;;-144.47;65.05;53237.44;5028230;28;20036;-72
2022/06/04 01:25:59;;;;;;;12.48;6.55;;;;;;;-144.47;65.54;53225.53;5029660;28;20390;-68
2022/06/04 01:28:28;;;;;;;9.15;5.82;;;;;;;-144.47;65.76;53249.38;5029260;28;20202;-67
2022/06/04 01:31:00;;;;;;;9.05;5.97;;;;;;;-144.47;66.16;53229.50;5029963;28;20459;-70
2022/06/04 01:33:42;;;;;;;11.00;5.80;;;;;;;-144.47;65.99;53237.44;5017683;28;20025;-70
2022/06/04 01:36:25;;;;;;;9.43;6.43;;;;;;;-144.47;66.08;53239.44;5029602;28;20132;-69
2022/06/04 01:38:55;;;;;;;11.27;6.53;;;;;;;-144.47;66.37;53239.44;5029349;28;20503;-68
2022/06/04 01:41:35;;;;;;;12.07;6.13;;;;;;;-144.47;66.93;53265.25;5029793;28;20018;-68
2022/06/04 01:44:28;;;;;;;11.88;6.28;;;;;;;-144.47;67.18;53257.31;5028752;28;20093;-70
2022/06/04 01:49:44;;;;;;;10.93;6.53;;;;;;;-144.47;67.38;53229.50;5010697;28;20057;-66
2022/06/04 01:52:15;;;;;;;11.85;6.38;;;;;;;-144.47;67.65;53265.25;5012277;28;20033;-66
2022/06/04 01:54:48;;;;;;;9.90;6.55;;;;;;;-144.47;67.53;53217.59;5012957;28;20018;-64
2022/06/04 01:57:22;;;;;;;12.23;6.70;;;;;;;-144.47;68.28;53235.47;5012834;28;20029;-64
2022/06/04 01:59:52;;;;;;;15.80;6.68;;;;;;;-144.47;68.42;53229.50;5011801;28;20022;-68
2022/06/04 02:02:24;;;;;;;9.07;6.63;;;;;;;-144.47;68.33;53245.41;5013247;28;20018;-70
2022/06/04 02:04:54;;;;;;;14.18;7.07;;;;;;;-144.47;68.97;53271.22;5007506;28;20033;-68
2022/06/04 02:07:31;;;;;;;11.88;6.97;;;;;;;-144.47;68.18;53261.28;5011665;28;20025;-65
2022/06/04 02:10:12;;;;;;;9.40;6.55;;;;;;;-144.47;68.19;53227.53;5011409;28;20029;-67
2022/06/04 02:12:40;;;;;;;17.20;7.32;;;;;;;-144.47;68.65;53279.16;5010975;28;20421;-65
2022/06/04 02:15:10;;;;;;;8.50;6.43;;;;;;;-144.47;69.14;53225.53;5010350;28;20034;-66
2022/06/04 02:17:43;;;;;;;13.00;7.93;;;;;;;-144.47;69.53;53241.44;5011754;28;20462;-66
2022/06/04 02:20:10;;;;;;;10.73;7.72;;;;;;;-144.47;69.68;53281.16;5011551;28;20084;-67
2022/06/04 02:22:35;;;;;;;12.52;7.78;;;;;;;-144.47;69.83;53237.44;5010699;28;20111;-68
2022/06/04 02:25:05;;;;;;;11.73;7.60;;;;;;;-144.47;69.88;53277.19;5011435;28;20467;-66
2022/06/04 02:27:30;;;;;;;13.07;7.90;;;;;;;-144.47;69.66;53241.44;5011219;28;20029;-66
2022/06/04 02:29:56;;;;;;;13.77;7.82;;;;;;;-144.47;69.93;53247.38;5010489;28;20030;-67
2022/06/04 02:32:25;;;;;;;9.95;7.72;;;;;;;-144.47;69.64;53219.56;5010472;28;20032;-63
2022/06/04 02:35:15;;;;;;;11.68;7.90;;;;;;;-144.47;70.61;53207.66;5012149;28;20037;-64
2022/06/04 02:37:47;;;;;;;10.05;7.25;;;;;;;-144.47;69.89;53265.25;5012243;28;20026;-66
2022/06/04 02:40:19;;;;;;;13.82;8.32;;;;;;;-144.47;70.02;53227.53;5012192;28;20118;-66
2022/06/04 02:42:50;;;;;;;10.77;8.20;;;;;;;-144.47;70.31;53247.38;5013208;28;20678;-65
2022/06/04 02:45:30;;;;;;;12.32;8.73;;;;;;;-144.47;70.09;53271.22;5012491;28;20033;-65
2022/06/04 02:48:12;;;;;;;11.98;8.40;;;;;;;-144.47;70.68;53241.44;5011502;28;20045;-67
2022/06/04 02:50:42;;;;;;;11.68;8.85;;;;;;;-144.47;70.72;53231.50;5010649;28;20044;-68
2022/06/04 02:53:09;;;;;;;11.75;8.75;;;;;;;-144.47;71.20;53257.31;5008827;28;20033;-68
2022/06/04 02:55:41;;;;;;;11.05;7.90;;;;;;;-144.47;71.41;53269.22;5010917;28;20439;-65
2022/06/04 02:58:13;;;;;;;12.45;8.98;;;;;;;-144.47;71.71;53249.38;5010731;28;20074;-67
2022/06/04 03:00:39;;;;;;;13.57;9.70;;;;;;;-144.47;71.76;53251.34;5010046;28;20049;-65
2022/06/04 03:03:04;;;;;;;12.38;8.65;;;;;;;-144.47;71.54;53259.31;5009902;28;20033;-65
2022/06/04 03:05:30;;;;;;;14.13;9.02;;;;;;;-144.47;71.66;53261.28;5010768;28;20446;-67
2022/06/04 03:08:03;;;;;;;12.68;8.80;;;;;;;-144.47;71.27;53271.22;5011330;28;20057;-66
2022/06/04 03:10:32;;;;;;;13.77;9.77;;;;;;;-144.47;71.20;53271.22;5009985;28;20026;-68
2022/06/04 03:12:58;;;;;;;14.95;9.77;;;;;;;-144.47;70.99;53273.22;5010910;28;20197;-67
2022/06/04 03:15:24;;;;;;;13.60;10.18;;;;;;;-144.47;71.17;53251.34;5010413;28;20021;-65
2022/06/04 03:17:50;;;;;;;14.95;10.25;;;;;;;-144.47;70.04;53265.25;4993037;28;20450;-67
2022/06/04 03:20:19;;;;;;;13.80;9.82;;;;;;;-144.47;69.14;53249.38;5010209;28;20437;-65
2022/06/04 03:22:44;;;;;;;13.45;9.98;;;;;;;-144.47;70.02;53233.47;5010118;28;20072;-65
2022/06/04 03:25:10;;;;;;;17.42;10.40;;;;;;;-144.47;70.25;53259.31;5008589;28;20037;-67
2022/06/04 03:27:35;;;;;;;13.25;10.27;;;;;;;-144.47;69.94;53217.59;5010426;28;20072;-64
2022/06/04 03:30:00;;;;;;;12.50;10.18;;;;;;;-144.47;69.43;53279.16;4991596;28;20104;-68
2022/06/04 03:32:26;;;;;;;17.00;10.68;;;;;;;-144.47;69.62;53241.44;5010522;28;20030;-67
2022/06/04 03:34:52;;;;;;;15.90;9.05;;;;;;;-144.47;69.47;53269.22;5011161;28;20113;-66
2022/06/04 03:37:17;;;;;;;15.07;11.02;;;;;;;-144.47;70.41;53253.34;5011265;28;20026;-64
2022/06/04 03:39:43;;;;;;;19.20;10.70;;;;;;;-144.47;70.46;53241.44;5010754;28;20022;-63
2022/06/04 03:42:08;;;;;;;12.60;9.70;;;;;;;-144.47;70.75;53249.38;4993527;28;20018;-65
2022/06/04 03:44:34;;;;;;;14.82;9.63;;;;;;;-144.47;69.78;53239.44;5010166;28;20030;-64
2022/06/04 03:46:59;;;;;;;12.50;9.68;;;;;;;-144.47;69.69;53229.50;5010514;28;20037;-67
2022/06/04 03:49:25;;;;;;;13.85;9.35;;;;;;;-144.47;69.14;53237.44;5010160;28;20480;-63
2022/06/04 03:51:51;;;;;;;12.98;9.43;;;;;;;-144.47;68.90;53297.03;5010994;28;20026;-66
2022/06/04 03:54:16;;;;;;;15.05;8.80;;;;;;;-144.47;68.87;53251.34;4993043;28;20095;-68
2022/06/04 03:56:41;;;;;;;11.50;9.13;;;;;;;-144.47;69.07;53249.38;5009665;28;20490;-65
2022/06/04 03:59:07;;;;;;;11.25;8.88;;;;;;;-144.47;69.19;53241.44;5008747;28;20499;-67
2022/06/04 04:01:33;;;;;;;16.23;9.88;;;;;;;-144.47;68.95;53283.13;5010010;28;20176;-67
2022/06/04 04:04:00;;;;;;;15.77;9.18;;;;;;;-144.47;68.37;53239.44;4999333;28;20065;-68
2022/06/04 04:06:29;;;;;;;13.23;9.38;;;;;;;-144.47;68.50;53281.16;5002081;28;20021;-67
2022/06/04 04:08:56;;;;;;;13.05;8.90;;;;;;;-144.47;67.62;53237.44;5009265;28;20651;-65
2022/06/04 04:11:25;;;;;;;11.20;8.77;;;;;;;-144.47;68.88;53269.22;5010043;28;20022;-68
2022/06/04 04:13:51;;;;;;;12.35;9.07;;;;;;;-144.47;68.42;53267.25;5009525;28;20518;-66
2022/06/04 04:16:18;;;;;;;10.40;8.57;;;;;;;-144.47;68.73;53239.44;5009984;28;20152;-67
2022/06/04 04:18:44;;;;;;;16.45;10.52;;;;;;;-144.47;69.37;53243.41;5009838;28;20182;-67
2022/06/04 04:21:16;;;;;;;15.57;11.40;;;;;;;-144.47;70.10;53271.22;5010608;28;20080;-67
2022/06/04 04:23:43;;;;;;;16.05;11.35;;;;;;;-144.47;70.74;53233.47;5009462;28;20438;-67
2022/06/04 04:26:11;;;;;;;15.32;10.88;;;;;;;-144.47;70.56;53287.13;5010147;28;20100;-66
2022/06/04 04:28:36;;;;;;;19.70;10.48;;;;;;;-144.47;70.39;53281.16;5009060;28;20037;-65
2022/06/04 04:31:09;;;;;;;13.38;11.23;;;;;;;-144.47;69.73;53257.31;5010420;28;20026;-65
2022/06/04 04:33:35;;;;;;;13.93;9.70;;;;;;;-144.47;69.90;53249.38;5010340;28;20072;-65
2022/06/04 04:36:00;;;;;;;18.77;11.18;;;;;;;-144.47;69.69;53285.13;5010277;28;20462;-65
2022/06/04 04:38:25;;;;;;;13.75;11.30;;;;;;;-144.47;69.52;53243.41;5010602;28;20061;-67
2022/06/04 04:40:51;;;;;;;14.32;11.38;;;;;;;-144.47;69.30;53279.16;5008875;28;20050;-67
2022/06/04 04:43:16;;;;;;;18.05;11.48;;;;;;;-144.47;69.30;53287.13;5009475;28;20209;-64
2022/06/04 04:45:44;;;;;;;19.40;11.60;;;;;;;-144.47;69.74;53293.06;5010760;28;20030;-66
2022/06/04 04:48:13;;;;;;;17.42;11.27;;;;;;;-144.47;69.15;53289.09;4991742;28;20030;-66
2022/06/04 04:50:40;;;;;;;;;;;;;;;-144.47;69.49;53285.13;4992551;28;20072;-66
2022/06/04 04:53:09;;;;;;;21.42;10.75;;;;;;;-144.47;69.51;53289.09;5007640;28;19920;-66
2022/06/04 04:55:35;;;;;;;14.75;10.65;;;;;;;-144.47;69.57;53289.09;5012593;28;20033;-65
2022/06/04 04:58:02;;;;;;;15.05;10.88;;;;;;;-144.47;70.17;53247.38;5013823;28;20022;-67
2022/06/04 05:00:27;;;;;;;18.45;11.95;;;;;;;-144.47;70.60;53283.13;5012153;28;20058;-64
2022/06/04 05:02:53;;;;;;;16.27;11.30;;;;;;;-144.47;70.48;53275.19;4993832;28;20022;-67
2022/06/04 05:05:18;;;;;;;14.93;9.93;;;;;;;-144.47;69.85;53235.47;5008763;28;20104;-67
2022/06/04 05:07:44;;;;;;;16.55;10.32;;;;;;;-144.47;69.47;53257.31;5013266;28;20038;-68
2022/06/04 05:10:11;;;;;;;13.27;9.20;;;;;;;-144.47;68.90;53293.06;5013353;28;20026;-66
2022/06/04 05:12:37;;;;;;;13.82;9.70;;;;;;;-144.47;69.06;53251.34;5013782;28;20085;-66
2022/06/04 05:15:03;;;;;;;15.15;10.38;;;;;;;-144.47;68.80;53275.19;5013542;28;20041;-67
2022/06/04 05:17:28;;;;;;;12.68;8.88;;;;;;;-144.47;68.71;53289.09;5013999;28;20117;-67
2022/06/04 05:19:54;;;;;;;14.40;9.30;;;;;;;-144.47;68.41;53283.13;5012554;28;20462;-67
2022/06/04 05:22:20;;;;;;;14.48;8.98;;;;;;;-144.47;68.40;53245.41;5011665;28;20022;-67
2022/06/04 05:24:45;;;;;;;14.93;9.57;;;;;;;-144.47;68.31;53269.22;5015073;28;20030;-65
2022/06/04 05:27:10;;;;;;;13.00;8.98;;;;;;;-144.47;68.13;53245.41;5011248;28;20034;-67
2022/06/04 05:29:37;;;;;;;14.50;9.40;;;;;;;-144.47;67.95;53275.19;5011015;28;20033;-67
2022/06/04 05:32:04;;;;;;;13.98;8.48;;;;;;;-144.47;67.95;53279.16;5012316;28;20618;-67
2022/06/04 05:34:31;;;;;;;11.73;8.82;;;;;;;-144.47;67.85;53289.09;5012105;28;20395;-68
2022/06/04 05:36:58;;;;;;;14.80;9.32;;;;;;;-144.47;67.87;53253.34;5012340;28;20025;-66
2022/06/04 05:39:24;;;;;;;10.70;8.55;;;;;;;-144.47;67.02;53229.50;5011769;28;20507;-67
2022/06/04 05:41:50;;;;;;;13.75;8.57;;;;;;;-144.47;66.70;53289.09;5012125;28;20468;-66
2022/06/04 05:44:16;;;;;;;11.43;8.27;;;;;;;-144.47;66.43;53265.25;5011921;28;20065;-64
2022/06/04 05:46:42;;;;;;;11.82;9.00;;;;;;;-144.47;66.19;53253.34;5011918;28;20036;-68
2022/06/04 05:49:10;;;;;;;13.40;8.23;;;;;;;-144.47;65.64;53285.13;5011359;28;20108;-65
2022/06/04 05:51:37;;;;;;;13.60;8.15;;;;;;;-144.47;65.63;53245.41;5012998;28;20030;-66
2022/06/04 05:54:02;;;;;;;10.27;7.72;;;;;;;-144.47;65.54;53263.28;5012689;28;20088;-67
2022/06/04 05:56:32;;;;;;;12.73;7.72;;;;;;;-144.47;64.84;53245.41;4994846;28;20089;-66
2022/06/04 05:59:00;;;;;;;14.10;7.15;;;;;;;-144.47;64.84;53275.19;5010941;28;20495;-65
2022/06/04 06:01:27;;;;;;;12.43;8.35;;;;;;;-144.47;64.17;53265.25;5013136;28;20136;-66
2022/06/04 06:03:52;;;;;;;12.43;7.18;;;;;;;-144.47;63.33;53239.44;5004520;28;20435;-67
2022/06/04 06:06:21;;;;;;;15.18;7.05;;;;;;;-144.47;61.92;53271.22;5011516;28;20028;-66
2022/06/04 06:08:47;;;;;;;10.27;6.72;;;;;;;-144.47;61.12;53267.25;5010778;28;20934;-65
2022/06/04 06:11:15;;;;;;;8.75;6.22;;;;;;;-144.47;59.95;53275.19;5012193;28;20022;-68
2022/06/04 06:13:42;;;;;;;12.85;5.97;;;;;;;-144.47;59.72;53247.38;5009987;28;20446;-67
2022/06/04 06:16:15;;;;;;;9.57;6.90;;;;;;;-144.47;59.45;53279.16;5012210;28;20109;-66
2022/06/04 06:18:41;;;;;;;8.73;6.22;;;;;;;-144.47;58.88;53231.50;5011112;28;20123;-65
2022/06/04 06:21:20;;;;;;;12.43;6.10;;;;;;;-144.47;58.45;53301.03;5012304;28;20480;-67
2022/06/04 06:23:47;;;;;;;9.00;6.45;;;;;;;-144.47;58.23;53259.31;5012110;28;20510;-68
2022/06/04 06:26:16;;;;;;;8.15;5.53;;;;;;;-144.47;57.15;53205.66;5012380;28;20492;-65
2022/06/04 06:28:43;;;;;;;9.18;6.07;;;;;;;-144.47;58.25;53231.50;5010373;28;20122;-65
2022/06/04 06:31:11;;;;;;;10.88;5.95;;;;;;;-144.47;57.52;53215.59;5011945;28;20487;-65
2022/06/04 06:33:36;;;;;;;8.55;5.45;;;;;;;-144.47;56.98;53193.75;4994780;28;20484;-66
2022/06/04 06:36:08;;;;;;;8.20;5.63;;;;;;;-144.47;56.94;53231.50;5012084;28;20077;-68
2022/06/04 06:38:34;;;;;;;9.23;5.55;;;;;;;-144.47;56.55;53235.47;5011015;28;20459;-66
2022/06/04 06:41:00;;;;;;;14.48;5.68;;;;;;;-144.47;56.57;53193.75;4993446;28;20045;-67
2022/06/04 06:46:04;;;;;;;9.50;5.53;;;;;;;-144.47;56.62;53225.53;5011858;28;20048;-66
2022/06/04 06:48:30;;;;;;;9.15;5.10;;;;;;;-144.47;56.04;53243.41;5011239;28;20034;-65
2022/06/04 06:50:55;;;;;;;12.57;5.85;;;;;;;-144.47;55.64;53245.41;5009248;28;20088;-68
2022/06/04 06:53:20;;;;;;;11.15;5.93;;;;;;;-144.47;56.36;53211.63;5010902;28;20553;-68
2022/06/04 06:55:46;;;;;;;10.02;5.28;;;;;;;-144.47;56.73;53241.44;5011545;28;20029;-68
2022/06/04 06:58:11;;;;;;;13.85;6.00;;;;;;;-144.47;57.10;53239.44;5010406;28;20555;-64
2022/06/04 07:00:38;;;;;;;10.85;6.65;;;;;;;-144.47;57.58;53207.66;5010864;28;20485;-67
2022/06/04 07:03:03;;;;;;;9.25;5.60;;;;;;;-144.47;57.51;53213.63;4991720;28;20091;-67
2022/06/04 07:05:29;;;;;;;25.80;21.17;;;;;;;-144.47;56.30;53211.63;5009775;28;20033;-65
2022/06/04 07:07:54;;;;;;;15.85;8.00;;;;;;;-144.47;56.14;53203.69;5010737;28;20018;-65
2022/06/04 07:10:20;;;;;;;13.85;10.35;;;;;;;-144.47;56.30;53201.69;5009736;28;20029;-66
2022/06/04 07:12:45;;;;;;;12.55;9.63;;;;;;;-144.47;56.24;53223.56;5009025;28;20488;-67
2022/06/04 07:15:11;;;;;;;9.82;6.70;;;;;;;-144.47;55.42;53229.50;5009816;28;20565;-64
2022/06/04 07:17:37;;;;;;;10.07;6.53;;;;;;;-144.47;54.92;53205.66;5009182;28;20029;-67
2022/06/04 07:20:02;;;;;;;20.27;6.28;;;;;;;-144.47;54.86;53233.47;5007381;28;20325;-65
2022/06/04 07:22:28;;;;;;;8.45;5.95;;;;;;;-144.47;55.02;53237.44;5010172;28;20100;-67
2022/06/04 07:24:55;;;;;;;11.13;5.93;;;;;;;-144.47;54.94;53215.59;5008166;28;20022;-63
2022/06/04 07:27:21;;;;;;;8.55;5.97;;;;;;;-144.47;55.32;53233.47;5009637;28;20030;-66
2022/06/04 07:29:46;;;;;;;12.60;6.30;;;;;;;-144.47;55.38;53237.44;5010425;28;20083;-66
2022/06/04 07:32:11;;;;;;;12.93;5.80;;;;;;;-144.47;55.40;53213.63;5013221;28;20030;-65
2022/06/04 07:34:37;;;;;;;9.02;5.40;;;;;;;-144.47;55.16;53217.59;4995853;28;20113;-67
2022/06/04 07:37:02;;;;;;;11.18;5.32;;;;;;;-144.47;55.42;53193.75;5012291;28;20052;-63
2022/06/04 07:39:28;;;;;;;8.93;5.63;;;;;;;-144.47;55.24;53211.63;5013288;28;20109;-67
2022/06/04 07:41:54;;;;;;;11.00;4.80;;;;;;;-144.47;55.10;53223.56;5011343;28;20029;-65
2022/06/04 07:44:22;;;;;;;7.53;4.95;;;;;;;-144.47;55.33;53223.56;5011319;28;20086;-65
2022/06/04 07:46:48;;;;;;;7.63;4.82;;;;;;;-144.47;55.29;53241.44;5013108;28;20025;-68
2022/06/04 07:49:15;;;;;;;9.77;5.10;;;;;;;-144.47;54.97;53219.56;5035123;22;20054;-70
2022/06/04 07:51:42;;;;;;;8.68;5.22;;;;;;;-144.47;53.91;53271.22;5028421;28;20249;-71
2022/06/04 07:54:08;;;;;;;11.88;5.18;;;;;;;-144.47;53.63;53229.50;5028528;28;20056;-68
2022/06/04 07:56:35;;;;;;;10.02;5.60;;;;;;;-144.47;53.77;53237.44;5027463;28;20026;-69
2022/06/04 07:59:01;;;;;;;9.48;4.60;;;;;;;-144.47;53.58;53249.38;5024683;28;20495;-68
2022/06/04 08:01:28;;;;;;;10.25;5.63;;;;;;;-144.47;54.02;53231.50;5027652;28;20121;-67
2022/06/04 08:03:54;;;;;;;9.68;5.47;;;;;;;-144.47;53.43;53239.44;5020268;28;20121;-68
2022/06/04 08:06:21;;;;;;;8.68;5.18;;;;;;;-144.47;53.71;53217.59;5027042;28;20184;-70
2022/06/04 08:08:50;;;;;;;10.13;5.43;;;;;;;-144.47;53.48;53235.47;5026503;28;20041;-69
2022/06/04 08:11:31;;;;;;;15.30;4.97;;;;;;;-144.47;53.62;53213.63;5027888;28;20026;-70
2022/06/04 08:14:17;;;;;;;7.68;4.97;;;;;;;-144.47;53.46;53223.56;5023560;28;20116;-68
2022/06/04 08:16:46;;;;;;;11.88;6.00;;;;;;;-144.47;52.77;53217.59;5024029;28;20108;-67
2022/06/04 08:19:13;;;;;;;9.73;5.85;;;;;;;-144.47;52.53;53171.91;5025106;28;20074;-66
2022/06/04 08:21:40;;;;;;;9.40;5.45;;;;;;;-144.47;51.96;53199.72;5028042;28;20049;-69
2022/06/04 08:24:07;;;;;;;9.70;5.18;;;;;;;-144.47;52.89;53221.56;5021814;28;20025;-67
2022/06/04 08:26:33;;;;;;;11.23;5.55;;;;;;;-144.47;53.39;53205.66;5019093;28;20057;-67
2022/06/04 08:28:58;;;;;;;9.70;5.82;;;;;;;-144.47;52.74;53233.47;5012591;28;20096;-68
2022/06/04 08:31:24;;;;;;;14.68;5.57;;;;;;;-144.47;52.79;53255.34;5019632;28;20171;-67
2022/06/04 08:33:49;;;;;;;8.45;5.32;;;;;;;-144.47;52.51;53233.47;5002918;28;20494;-68
2022/06/04 08:36:16;;;;;;;8.98;5.57;;;;;;;-144.47;51.96;53211.63;5020779;28;20025;-70
2022/06/04 08:38:43;;;;;;;7.32;5.20;;;;;;;-144.47;51.57;53215.59;5023546;28;20159;-66
2022/06/04 08:41:20;;;;;;;10.88;6.18;;;;;;;-144.47;50.62;53209.66;5012553;28;20049;-66
2022/06/04 08:43:55;;;;;;;14.73;5.35;;;;;;;-144.47;50.45;53219.56;5015741;28;20375;-69
2022/06/04 08:46:32;;;;;;;8.68;5.40;;;;;;;-144.47;50.05;53229.50;5009995;28;20033;-66
2022/06/04 08:49:17;;;;;;;9.43;5.05;;;;;;;-144.47;50.03;53213.63;5025682;28;20029;-68
2022/06/04 08:51:44;;;;;;;20.15;6.00;;;;;;;-144.47;49.33;53213.63;5003746;28;20029;-67
2022/06/04 08:59:57;;;;;;;10.48;5.35;;;;;;;-144.47;49.91;53187.78;5027881;28;20454;-66
2022/06/04 09:02:34;;;;;;;14.32;5.82;;;;;;;-144.47;49.63;53161.97;5030495;28;20021;-69
2022/06/04 09:05:19;;;;;;;9.70;5.88;;;;;;;-144.47;49.98;53221.56;5028737;28;20032;-69
2022/06/04 09:07:49;;;;;;;14.27;5.97;;;;;;;-144.47;51.22;53225.53;5027015;28;20055;-69
2022/06/04 09:10:23;;;;;;;11.98;5.80;;;;;;;-144.47;50.22;53173.88;5029541;28;20162;-68
2022/06/04 09:12:55;;;;;;;12.57;5.60;;;;;;;-144.47;50.38;53187.78;5030343;28;20033;-70
2022/06/04 09:15:38;;;;;;;9.95;6.35;;;;;;;-144.47;50.92;53215.59;5030014;28;20500;-69
2022/06/04 09:18:13;;;;;;;8.02;5.70;;;;;;;-144.47;50.58;53197.72;5011360;28;20041;-69
2022/06/04 09:20:41;;;;;;;12.32;5.75;;;;;;;-144.47;49.74;53183.81;5029501;28;20063;-68
2022/06/04 09:23:29;;;;;;;14.77;5.50;;;;;;;-144.47;49.81;53173.88;5012349;28;20344;-67
2022/06/04 09:26:05;;;;;;;15.15;6.45;;;;;;;-144.47;49.10;53150.06;5012356;28;20045;-68
2022/06/04 09:29:09;;;;;;;11.32;6.45;;;;;;;-144.47;48.65;53183.81;5022019;28;20645;-67
2022/06/04 09:32:11;;;;;;;7.43;5.20;;;;;;;-144.47;47.96;53187.78;5015428;28;20038;-68
2022/06/04 09:34:45;;;;;;;15.07;6.45;;;;;;;-144.47;47.17;53175.88;5030116;28;20498;-69
2022/06/04 09:37:11;;;;;;;12.05;5.68;;;;;;;-144.47;46.93;53187.78;5030631;28;20403;-68
2022/06/04 09:39:40;;;;;;;12.95;6.40;;;;;;;-144.47;46.92;53148.06;5029691;28;20040;-68
2022/06/04 09:42:11;;;;;;;10.05;6.47;;;;;;;-144.47;47.63;53201.69;5029289;28;20026;-67
2022/06/04 09:45:07;;;;;;;11.20;6.18;;;;;;;-144.47;46.97;53195.75;5012118;28;20079;-67
2022/06/04 09:47:48;;;;;;;12.25;7.13;;;;;;;-144.47;46.90;53167.94;5029080;28;20060;-67
2022/06/04 09:50:26;;;;;;;9.63;6.32;;;;;;;-144.47;46.75;53171.91;5038789;28;20090;-68
2022/06/04 09:53:09;;;;;;;10.73;5.40;;;;;;;-144.47;46.70;53185.81;5017349;28;20116;-68
2022/06/04 09:55:37;;;;;;;11.02;5.30;;;;;;;-144.47;46.12;53193.75;5022985;28;20422;-69
2022/06/04 09:58:26;;;;;;;15.27;5.57;;;;;;;-144.47;46.18;53177.88;5028942;28;20018;-68
2022/06/04 10:01:01;;;;;;;9.77;5.18;;;;;;;-144.47;45.86;53163.97;5029647;28;20257;-68
2022/06/04 10:03:30;;;;;;;10.25;5.65;;;;;;;-144.47;45.16;53171.91;5024813;28;20033;-69
2022/06/04 10:06:02;;;;;;;10.07;5.38;;;;;;;-144.47;45.20;53189.78;5029314;28;20511;-68
2022/06/04 10:08:29;;;;;;;11.40;6.43;;;;;;;-144.47;44.71;53126.22;5029696;28;20131;-65
2022/06/04 10:11:05;;;;;;;13.43;5.78;;;;;;;-144.47;44.56;53154.03;5011994;28;20088;-68
2022/06/04 10:13:46;;;;;;;10.27;5.95;;;;;;;-144.47;43.57;53142.09;5010506;28;20033;-69
2022/06/04 10:16:15;;;;;;;9.93;5.50;;;;;;;-144.47;43.63;53152.03;5029375;28;20064;-67
2022/06/04 10:19:02;;;;;;;8.70;5.68;;;;;;;-144.47;43.34;53158.00;5025419;28;20033;-68
2022/06/04 10:21:32;;;;;;;9.65;5.43;;;;;;;-144.47;43.68;53171.91;5021667;28;20495;-67
2022/06/04 10:24:07;;;;;;;11.75;5.68;;;;;;;-144.47;43.62;53173.88;5028423;28;20044;-68
2022/06/04 10:27:10;;;;;;;9.63;4.95;;;;;;;-144.47;42.21;53175.88;5029222;28;20036;-68
2022/06/04 10:29:41;;;;;;;13.68;6.65;;;;;;;-144.47;42.54;53173.88;5026301;28;20040;-67
2022/06/04 10:32:31;;;;;;;8.38;4.30;;;;;;;-144.47;42.27;53154.03;5029318;28;20033;-69
2022/06/04 10:35:05;;;;;;;11.23;4.70;;;;;;;-144.47;41.16;53177.88;5012028;28;20134;-67
2022/06/04 10:37:56;;;;;;;8.55;5.60;;;;;;;-144.47;41.97;53165.94;5030055;28;20100;-69
2022/06/04 10:40:46;;;;;;;9.55;5.30;;;;;;;-144.47;40.98;53106.34;5028577;28;20510;-69
2022/06/04 10:43:33;;;;;;;9.25;4.68;;;;;;;-144.47;41.64;53100.41;5028498;28;20406;-67
2022/06/04 10:46:20;;;;;;;11.10;5.30;;;;;;;-144.47;40.99;53074.56;5029508;28;20049;-68
2022/06/04 10:49:03;;;;;;;10.43;5.75;;;;;;;-144.47;41.77;53136.16;5017412;28;20486;-65
2022/06/04 10:51:54;;;;;;;8.88;4.97;;;;;;;-144.47;42.45;53144.09;5026706;28;20037;-67
2022/06/04 10:54:38;;;;;;;12.90;5.25;;;;;;;-144.47;42.17;53126.22;5028116;28;20029;-68
2022/06/04 10:57:32;;;;;;;9.07;4.65;;;;;;;-144.47;42.72;53150.06;5028998;28;20029;-66
2022/06/04 11:00:03;;;;;;;10.80;5.50;;;;;;;-144.47;42.00;53144.09;5027743;28;20343;-66
2022/06/04 11:02:35;;;;;;;10.13;5.20;;;;;;;-144.47;42.52;53118.28;5028336;28;20032;-67
2022/06/04 11:05:15;;;;;;;10.25;5.18;;;;;;;-144.47;42.50;53158.00;5024192;28;20371;-69
2022/06/04 11:07:40;;;;;;;8.07;4.80;;;;;;;-144.47;42.72;53205.66;5028085;28;20047;-67
2022/06/04 11:10:13;;;;;;;10.65;4.90;;;;;;;-144.47;41.80;53161.97;5027547;28;20568;-67
2022/06/04 11:13:20;;;;;;;9.43;4.90;;;;;;;-144.47;42.65;53158.00;5026590;28;20044;-69
2022/06/04 11:16:03;;;;;;;7.45;4.78;;;;;;;-144.47;42.52;53156.00;5027451;28;20033;-68
2022/06/04 11:18:32;;;;;;;14.10;5.57;;;;;;;-144.47;41.61;53169.91;5017487;28;20037;-68
2022/06/04 11:21:24;;;;;;;9.40;4.85;;;;;;;-144.47;41.60;53156.00;5016117;28;20225;-69
2022/06/04 11:24:02;;;;;;;11.98;5.05;;;;;;;-144.47;42.39;53124.22;5027406;28;20043;-65
2022/06/04 11:26:54;;;;;;;8.10;4.75;;;;;;;-144.47;42.15;53161.97;5001898;28;20029;-69
2022/06/04 11:29:20;;;;;;;8.00;4.63;;;;;;;-144.47;41.67;53130.19;5020185;28;20502;-68
2022/06/04 11:32:16;;;;;;;23.25;6.43;;;;;;;-144.47;41.24;53130.19;5025064;28;20056;-69
2022/06/04 11:35:04;;;;;;;7.78;4.20;;;;;;;-144.47;40.98;53122.25;5029230;28;20513;-68
2022/06/04 11:37:48;;;;;;;;;;;;;;;-144.47;41.00;53126.22;5028555;28;20403;-67
2022/06/04 11:41:00;;;;;;;7.30;4.18;;;;;;;-144.47;40.56;53169.91;5028048;28;19909;-70
2022/06/04 11:44:02;;;;;;;7.43;4.07;;;;;;;-144.47;41.18;53120.25;5028674;28;20390;-67
2022/06/04 11:46:54;;;;;;;8.10;4.45;;;;;;;-144.47;41.36;53128.22;5013381;28;20388;-69
2022/06/04 11:49:25;;;;;;;7.13;4.38;;;;;;;-144.47;40.96;53165.94;5004178;28;20478;-69